Observation data for Silverton on 05/26/2019      Previous  Date  Next       Current Mesonet Observations  Soil Data  Daily Summary Page  Observations in Plain Language
KSVS 260500Z 14007KT 19/18 A2996 RMK A01 T01900177  RH  097%=      5-min Rain = 0
KSVS 260505Z 14007KT 19/18 A2997 RMK A01 T01890175  RH  097%=      5-min Rain = 0
KSVS 260510Z 13006KT 19/17 A2997 RMK A01 T01860174  RH  098%=      5-min Rain = 0
KSVS 260515Z 12006KT 18/17 A2997 RMK A01 T01830172  RH  098%=      5-min Rain = 0
KSVS 260520Z 11007KT 18/17 A2997 RMK A01 T01790170  RH  099%=      5-min Rain = 0
KSVS 260525Z 12008KT 18/17 A2997 RMK A01 T01790171  RH  100%=      5-min Rain = 0
KSVS 260530Z 12009KT 18/17 A2998 RMK A01 T01810173  RH  100%=      5-min Rain = 0
KSVS 260535Z 12008KT 18/17 A2998 RMK A01 T01810172  RH  100%=      5-min Rain = 0
KSVS 260540Z 12007KT 18/17 A2998 RMK A01 T01790172  RH  100%=      5-min Rain = 0
KSVS 260545Z 12010KT 18/17 A2998 RMK A01 T01810173  RH  100%=      5-min Rain = 0
KSVS 260550Z 12010KT 18/18 A2998 RMK A01 T01830175  RH  100%=      5-min Rain = 0
KSVS 260555Z 12011KT 18/18 A2998 RMK A01 T01840176  RH  100%=      5-min Rain = 0
KSVS 260600Z 12010KT 18/18 A2998 RMK A01 T01830175  RH  100%=      5-min Rain = 0
KSVS 260605Z 13009KT 18/17 A2998 RMK A01 T01810173  RH  100%=      5-min Rain = 0
KSVS 260610Z 13009KT 18/18 A2998 RMK A01 T01830175  RH  100%=      5-min Rain = 0
KSVS 260615Z 13010KT 19/18 A2998 RMK A01 T01860177  RH  100%=      5-min Rain = 0
KSVS 260620Z 13009KT 19/18 A2997 RMK A01 T01850177  RH  100%=      5-min Rain = 0
KSVS 260625Z 14009KT 19/18 A2997 RMK A01 T01860178  RH  100%=      5-min Rain = 0
KSVS 260630Z 14010KT 19/18 A2997 RMK A01 T01860178  RH  100%=      5-min Rain = 0
KSVS 260635Z 14009KT 19/18 A2998 RMK A01 T01860177  RH  100%=      5-min Rain = 0
KSVS 260640Z 14009KT 19/18 A2998 RMK A01 T01850177  RH  100%=      5-min Rain = 0
KSVS 260645Z 14009KT 19/18 A2998 RMK A01 T01850177  RH  100%=      5-min Rain = 0
KSVS 260650Z 14009KT 19/18 A2997 RMK A01 T01850177  RH  100%=      5-min Rain = 0
KSVS 260655Z 14009KT 19/18 A2997 RMK A01 T01860178  RH  100%=      5-min Rain = 0
KSVS 260700Z 14009KT 19/18 A2997 RMK A01 T01860178  RH  100%=      5-min Rain = 0
KSVS 260705Z 14009KT 19/18 A2997 RMK A01 T01860178  RH  100%=      5-min Rain = 0
KSVS 260710Z 14008KT 19/18 A2997 RMK A01 T01860177  RH  100%=      5-min Rain = 0
KSVS 260715Z 14008KT 19/18 A2997 RMK A01 T01860178  RH  100%=      5-min Rain = 0
KSVS 260720Z 14008KT 19/18 A2997 RMK A01 T01860178  RH  100%=      5-min Rain = 0
KSVS 260725Z 14008KT 19/18 A2997 RMK A01 T01850177  RH  100%=      5-min Rain = 0
KSVS 260730Z 14008KT 18/18 A2997 RMK A01 T01840176  RH  100%=      5-min Rain = 0
KSVS 260735Z 14007KT 18/18 A2997 RMK A01 T01830175  RH  100%=      5-min Rain = 0
KSVS 260740Z 13007KT 18/18 A2998 RMK A01 T01840175  RH  100%=      5-min Rain = 0
KSVS 260745Z 13006KT 18/18 A2998 RMK A01 T01830175  RH  100%=      5-min Rain = 0
KSVS 260750Z 14006KT 18/18 A2998 RMK A01 T01840176  RH  100%=      5-min Rain = 0
KSVS 260755Z 13007KT 18/18 A2998 RMK A01 T01840176  RH  100%=      5-min Rain = 0
KSVS 260800Z 14006KT 19/18 A2998 RMK A01 T01850177  RH  100%=      5-min Rain = 0
KSVS 260805Z 14007KT 19/18 A2998 RMK A01 T01850177  RH  100%=      5-min Rain = 0
KSVS 260810Z 13007KT 19/18 A2998 RMK A01 T01850177  RH  100%=      5-min Rain = 0
KSVS 260815Z 13007KT 18/18 A2998 RMK A01 T01840176  RH  100%=      5-min Rain = 0
KSVS 260820Z 13007KT 18/18 A2998 RMK A01 T01840176  RH  100%=      5-min Rain = 0
KSVS 260825Z 13007KT 19/18 A2997 RMK A01 T01850177  RH  100%=      5-min Rain = 0
KSVS 260830Z 13008KT 19/18 A2998 RMK A01 T01850177  RH  100%=      5-min Rain = 0
KSVS 260835Z 13007KT 19/18 A2998 RMK A01 T01860177  RH  100%=      5-min Rain = 0
KSVS 260840Z 14008KT 19/18 A2998 RMK A01 T01870178  RH  100%=      5-min Rain = 0
KSVS 260845Z 13008KT 19/18 A2998 RMK A01 T01870178  RH  100%=      5-min Rain = 0
KSVS 260850Z 13008KT 19/18 A2998 RMK A01 T01870179  RH  100%=      5-min Rain = 0.01
KSVS 260855Z 13007KT 19/18 A2998 RMK A01 T01870178  RH  100%=      5-min Rain = 0
KSVS 260900Z 13007KT 19/18 A2998 RMK A01 T01870178  RH  100%=      5-min Rain = 0
KSVS 260905Z 13007KT 19/18 A2998 RMK A01 T01870179  RH  100%=      5-min Rain = 0
KSVS 260910Z 13007KT 19/18 A2998 RMK A01 T01860178  RH  100%=      5-min Rain = 0
KSVS 260915Z 13007KT 19/18 A2998 RMK A01 T01860178  RH  100%=      5-min Rain = 0
KSVS 260920Z 13008KT 19/18 A2998 RMK A01 T01870178  RH  100%=      5-min Rain = 0
KSVS 260925Z 13007KT 19/18 A2998 RMK A01 T01860178  RH  100%=      5-min Rain = 0
KSVS 260930Z 13007KT 19/18 A2998 RMK A01 T01860178  RH  100%=      5-min Rain = 0
KSVS 260935Z 13007KT 19/18 A2998 RMK A01 T01860178  RH  100%=      5-min Rain = 0
KSVS 260940Z 13007KT 19/18 A2998 RMK A01 T01860178  RH  100%=      5-min Rain = 0
KSVS 260945Z 13007KT 19/18 A2998 RMK A01 T01860177  RH  100%=      5-min Rain = 0
KSVS 260950Z 13007KT 19/18 A2998 RMK A01 T01850177  RH  100%=      5-min Rain = 0
KSVS 260955Z 13006KT 19/18 A2998 RMK A01 T01850177  RH  100%=      5-min Rain = 0
KSVS 261000Z 12006KT 19/18 A2998 RMK A01 T01850177  RH  100%=      5-min Rain = 0
KSVS 261005Z 12006KT 18/18 A2998 RMK A01 T01840176  RH  100%=      5-min Rain = 0
KSVS 261010Z 12006KT 18/18 A2998 RMK A01 T01840176  RH  100%=      5-min Rain = 0
KSVS 261015Z 13005KT 18/18 A2999 RMK A01 T01840176  RH  100%=      5-min Rain = 0
KSVS 261020Z 14006KT 18/18 A2999 RMK A01 T01830175  RH  100%=      5-min Rain = 0
KSVS 261025Z 13007KT 18/17 A2999 RMK A01 T01820174  RH  100%=      5-min Rain = 0
KSVS 261030Z 13007KT 18/17 A2998 RMK A01 T01820174  RH  100%=      5-min Rain = 0
KSVS 261035Z 14006KT 18/17 A2999 RMK A01 T01820174  RH  100%=      5-min Rain = 0
KSVS 261040Z 14007KT 18/17 A2999 RMK A01 T01820174  RH  100%=      5-min Rain = 0
KSVS 261045Z 15006KT 18/17 A2999 RMK A01 T01820174  RH  100%=      5-min Rain = 0
KSVS 261050Z 15005KT 18/17 A2999 RMK A01 T01820174  RH  100%=      5-min Rain = 0
KSVS 261055Z 14005KT 18/17 A2999 RMK A01 T01820174  RH  100%=      5-min Rain = 0
KSVS 261100Z 14004KT 18/17 A2999 RMK A01 T01820174  RH  100%=      5-min Rain = 0
KSVS 261105Z 13004KT 18/17 A2999 RMK A01 T01820174  RH  100%=      5-min Rain = 0
KSVS 261110Z 14004KT 18/17 A2999 RMK A01 T01820174  RH  100%=      5-min Rain = 0
KSVS 261115Z 15004KT 18/17 A2999 RMK A01 T01820174  RH  100%=      5-min Rain = 0
KSVS 261120Z 15004KT 18/17 A2999 RMK A01 T01820174  RH  100%=      5-min Rain = 0
KSVS 261125Z 15004KT 18/17 A30 RMK A01 T01820174  RH  100%=      5-min Rain = 0
KSVS 261130Z 15004KT 18/17 A30 RMK A01 T01820174  RH  100%=      5-min Rain = 0
KSVS 261135Z 14005KT 18/17 A30 RMK A01 T01820174  RH  100%=      5-min Rain = 0
KSVS 261140Z 14005KT 18/17 A30 RMK A01 T01820174  RH  100%=      5-min Rain = 0
KSVS 261145Z 13004KT 18/17 A30 RMK A01 T01820174  RH  100%=      5-min Rain = 0
KSVS 261150Z 13004KT 18/18 A30 RMK A01 T01830175  RH  100%=      5-min Rain = 0
KSVS 261155Z 13004KT 18/18 A3001 RMK A01 T01830175  RH  100%=      5-min Rain = 0
KSVS 261200Z 12004KT 18/18 A3001 RMK A01 T01830175  RH  100%=      5-min Rain = 0
KSVS 261205Z 12005KT 18/18 A3001 RMK A01 T01830175  RH  100%=      5-min Rain = 0
KSVS 261210Z 12006KT 18/18 A3001 RMK A01 T01840176  RH  100%=      5-min Rain = 0
KSVS 261215Z 12007KT 18/18 A3001 RMK A01 T01840176  RH  100%=      5-min Rain = 0
KSVS 261220Z 12006KT 18/18 A3002 RMK A01 T01840176  RH  100%=      5-min Rain = 0
KSVS 261225Z 12007KT 18/18 A3001 RMK A01 T01840176  RH  100%=      5-min Rain = 0
KSVS 261230Z 12007KT 18/18 A3002 RMK A01 T01840176  RH  100%=      5-min Rain = 0
KSVS 261235Z 12006KT 19/18 A3002 RMK A01 T01850176  RH  100%=      5-min Rain = 0
KSVS 261240Z 12007KT 18/18 A3002 RMK A01 T01840176  RH  100%=      5-min Rain = 0
KSVS 261245Z 13006KT 18/18 A3002 RMK A01 T01840176  RH  100%=      5-min Rain = 0
KSVS 261250Z 12007KT 18/18 A3003 RMK A01 T01840176  RH  100%=      5-min Rain = 0
KSVS 261255Z 12007KT 18/18 A3003 RMK A01 T01840176  RH  100%=      5-min Rain = 0
KSVS 261300Z 12006KT 18/18 A3003 RMK A01 T01840176  RH  100%=      5-min Rain = 0
KSVS 261305Z 12007KT 18/18 A3003 RMK A01 T01840176  RH  100%=      5-min Rain = 0
KSVS 261310Z 13008KT 19/18 A3003 RMK A01 T01850176  RH  100%=      5-min Rain = 0
KSVS 261315Z 12007KT 19/18 A3003 RMK A01 T01850177  RH  100%=      5-min Rain = 0
KSVS 261320Z 12008KT 19/18 A3003 RMK A01 T01850177  RH  100%=      5-min Rain = 0
KSVS 261325Z 13009KT 19/18 A3003 RMK A01 T01850177  RH  100%=      5-min Rain = 0
KSVS 261330Z 13009KT 19/18 A3003 RMK A01 T01850177  RH  100%=      5-min Rain = 0
KSVS 261335Z 13010KT 19/18 A3003 RMK A01 T01860178  RH  100%=      5-min Rain = 0
KSVS 261340Z 13009KT 19/18 A3003 RMK A01 T01860178  RH  100%=      5-min Rain = 0
KSVS 261345Z 14009KT 19/18 A3003 RMK A01 T01870178  RH  100%=      5-min Rain = 0
KSVS 261350Z 14008KT 19/18 A3003 RMK A01 T01870179  RH  100%=      5-min Rain = 0
KSVS 261355Z 14010KT 19/18 A3003 RMK A01 T01870179  RH  100%=      5-min Rain = 0
KSVS 261400Z 14009KT 19/18 A3003 RMK A01 T01870179  RH  100%=      5-min Rain = 0
KSVS 261405Z 14009KT 19/18 A3003 RMK A01 T01870179  RH  100%=      5-min Rain = 0
KSVS 261410Z 15008KT 19/18 A3003 RMK A01 T01880180  RH  100%=      5-min Rain = 0
KSVS 261415Z 14009KT 19/18 A3003 RMK A01 T01880180  RH  100%=      5-min Rain = 0
KSVS 261420Z 15008KT 19/18 A3004 RMK A01 T01880180  RH  100%=      5-min Rain = 0
KSVS 261425Z 15008KT 19/18 A3004 RMK A01 T01880180  RH  100%=      5-min Rain = 0
KSVS 261430Z 15008KT 19/18 A3004 RMK A01 T01890180  RH  100%=      5-min Rain = 0
KSVS 261435Z 15008KT 19/18 A3004 RMK A01 T01890181  RH  100%=      5-min Rain = 0
KSVS 261440Z 14009KT 19/18 A3004 RMK A01 T01890181  RH  100%=      5-min Rain = 0
KSVS 261445Z 15008KT 19/18 A3004 RMK A01 T01900182  RH  100%=      5-min Rain = 0
KSVS 261450Z 15008KT 19/18 A3004 RMK A01 T01910183  RH  100%=      5-min Rain = 0
KSVS 261455Z 15008G13KT 19/18 A3004 RMK A01 T01930184  RH  100%=      5-min Rain = 0
KSVS 261500Z 14010KT 19/18 A3004 RMK A01 T01930184  RH  100%=      5-min Rain = 0
KSVS 261505Z 15010KT 19/19 A3004 RMK A01 T01930185  RH  100%=      5-min Rain = 0
KSVS 261510Z 15010KT 19/18 A3004 RMK A01 T01930184  RH  100%=      5-min Rain = 0
KSVS 261515Z 16009KT 19/19 A3004 RMK A01 T01930185  RH  100%=      5-min Rain = 0
KSVS 261520Z 15010KT 19/19 A3004 RMK A01 T01930185  RH  100%=      5-min Rain = 0
KSVS 261525Z 15010KT 19/19 A3004 RMK A01 T01930185  RH  100%=      5-min Rain = 0
KSVS 261530Z 15009KT 19/19 A3004 RMK A01 T01940186  RH  100%=      5-min Rain = 0
KSVS 261535Z 16010KT 20/19 A3004 RMK A01 T01950186  RH  100%=      5-min Rain = 0
KSVS 261540Z 15010KT 20/19 A3004 RMK A01 T01950186  RH  100%=      5-min Rain = 0
KSVS 261545Z 15009KT 19/19 A3004 RMK A01 T01940186  RH  100%=      5-min Rain = 0
KSVS 261550Z 15009KT 19/19 A3004 RMK A01 T01940186  RH  100%=      5-min Rain = 0
KSVS 261555Z 15010KT 19/19 A3003 RMK A01 T01940186  RH  100%=      5-min Rain = 0
KSVS 261600Z 16011KT 20/19 A3003 RMK A01 T01950186  RH  100%=      5-min Rain = 0
KSVS 261605Z 16010KT 20/19 A3003 RMK A01 T01960187  RH  100%=      5-min Rain = 0
KSVS 261610Z 15010KT 20/19 A3003 RMK A01 T01950186  RH  100%=      5-min Rain = 0
KSVS 261615Z 16010KT 20/19 A3002 RMK A01 T01960187  RH  100%=      5-min Rain = 0
KSVS 261620Z 15010KT 20/19 A3002 RMK A01 T01950187  RH  100%=      5-min Rain = 0
KSVS 261625Z 16009G14KT 20/19 A3002 RMK A01 T01970188  RH  100%=      5-min Rain = 0
KSVS 261630Z 15010KT 20/19 A3002 RMK A01 T01960187  RH  100%=      5-min Rain = 0
KSVS 261635Z 16009KT 20/19 A3002 RMK A01 T01960187  RH  100%=      5-min Rain = 0
KSVS 261640Z 14010KT 20/19 A3002 RMK A01 T01960188  RH  100%=      5-min Rain = 0.01
KSVS 261645Z 16012KT 19/19 A3003 RMK A01 T01940186  RH  100%=      5-min Rain = 0
KSVS 261650Z 16011KT 20/19 A3003 RMK A01 T01950186  RH  100%=      5-min Rain = 0
KSVS 261655Z 16011KT 20/19 A3002 RMK A01 T01960187  RH  100%=      5-min Rain = 0
KSVS 261700Z 17011KT 20/19 A3002 RMK A01 T01960188  RH  100%=      5-min Rain = 0
KSVS 261705Z 15010KT 20/19 A3003 RMK A01 T01960187  RH  100%=      5-min Rain = 0
KSVS 261710Z 16013KT 20/19 A3003 RMK A01 T01950186  RH  100%=      5-min Rain = 0
KSVS 261715Z 16011KT 20/19 A3003 RMK A01 T01950187  RH  100%=      5-min Rain = 0
KSVS 261720Z 17012KT 20/19 A3003 RMK A01 T01950187  RH  100%=      5-min Rain = 0
KSVS 261725Z 17010KT 20/19 A3003 RMK A01 T01950187  RH  100%=      5-min Rain = 0
KSVS 261730Z 16010KT 20/19 A3003 RMK A01 T01960187  RH  100%=      5-min Rain = 0
KSVS 261735Z 17012KT 20/19 A3003 RMK A01 T01950187  RH  100%=      5-min Rain = 0
KSVS 261740Z 17012KT 20/19 A3003 RMK A01 T01960188  RH  100%=      5-min Rain = 0
KSVS 261745Z 16011KT 20/19 A3003 RMK A01 T01970188  RH  100%=      5-min Rain = 0
KSVS 261750Z 15010KT 20/19 A3002 RMK A01 T01990190  RH  100%=      5-min Rain = 0
KSVS 261755Z 15012KT 20/19 A3002 RMK A01 T01970188  RH  100%=      5-min Rain = 0
KSVS 261800Z 15011KT 19/19 A3002 RMK A01 T01940186  RH  100%=      5-min Rain = 0
KSVS 261805Z 15011KT 19/19 A3002 RMK A01 T01940186  RH  100%=      5-min Rain = 0
KSVS 261810Z 15012KT 19/19 A3002 RMK A01 T01940186  RH  100%=      5-min Rain = 0
KSVS 261815Z 15011KT 19/19 A3002 RMK A01 T01940185  RH  100%=      5-min Rain = 0
KSVS 261820Z 15012KT 19/19 A3002 RMK A01 T01930185  RH  100%=      5-min Rain = 0
KSVS 261825Z 15013KT 19/18 A3002 RMK A01 T01920184  RH  100%=      5-min Rain = 0.01
KSVS 261830Z 15011KT 19/19 A3002 RMK A01 T01940185  RH  100%=      5-min Rain = 0
KSVS 261835Z 15012KT 19/19 A3002 RMK A01 T01930185  RH  100%=      5-min Rain = 0
KSVS 261840Z 15012KT 19/19 A3002 RMK A01 T01930185  RH  100%=      5-min Rain = 0
KSVS 261845Z 15012KT 19/19 A3002 RMK A01 T01930185  RH  100%=      5-min Rain = 0
KSVS 261850Z 16011KT 19/19 A3002 RMK A01 T01940185  RH  100%=      5-min Rain = 0
KSVS 261855Z 15011KT 19/19 A3002 RMK A01 T01940185  RH  100%=      5-min Rain = 0
KSVS 261900Z 15011KT 19/19 A3002 RMK A01 T01940185  RH  100%=      5-min Rain = 0
KSVS 261905Z 15012KT 19/19 A3002 RMK A01 T01930185  RH  100%=      5-min Rain = 0
KSVS 261910Z 15011KT 19/19 A3002 RMK A01 T01930185  RH  100%=      5-min Rain = 0
KSVS 261915Z 15011KT 19/19 A3002 RMK A01 T01940185  RH  100%=      5-min Rain = 0.01
KSVS 261920Z 15012KT 19/19 A3002 RMK A01 T01930185  RH  100%=      5-min Rain = 0
KSVS 261925Z 15012KT 19/19 A3002 RMK A01 T01930185  RH  100%=      5-min Rain = 0
KSVS 261930Z 15013KT 19/19 A3002 RMK A01 T01930185  RH  100%=      5-min Rain = 0
KSVS 261935Z 16010KT 19/19 A3002 RMK A01 T01940185  RH  100%=      5-min Rain = 0
KSVS 261940Z 16011KT 19/19 A3003 RMK A01 T01930185  RH  100%=      5-min Rain = 0
KSVS 261945Z 16010KT 19/19 A3003 RMK A01 T01940185  RH  100%=      5-min Rain = 0.01
KSVS 261950Z 16012KT 19/19 A3003 RMK A01 T01940185  RH  100%=      5-min Rain = 0
KSVS 261955Z 16013KT 20/19 A3003 RMK A01 T01950186  RH  100%=      5-min Rain = 0
KSVS 262000Z 16012KT 20/19 A3003 RMK A01 T01960187  RH  100%=      5-min Rain = 0
KSVS 262005Z 16012KT 20/19 A3002 RMK A01 T01960187  RH  100%=      5-min Rain = 0
KSVS 262010Z 16012G17KT 20/19 A3002 RMK A01 T01970188  RH  100%=      5-min Rain = 0
KSVS 262015Z 16012KT 20/19 A3002 RMK A01 T01970188  RH  100%=      5-min Rain = 0.01
KSVS 262020Z 16013KT 20/19 A3002 RMK A01 T01970189  RH  100%=      5-min Rain = 0
KSVS 262025Z 16012KT 20/19 A3002 RMK A01 T01980189  RH  100%=      5-min Rain = 0
KSVS 262030Z 16013KT 20/19 A3002 RMK A01 T01980189  RH  100%=      5-min Rain = 0.01
KSVS 262035Z 16013KT 20/19 A3002 RMK A01 T01980189  RH  100%=      5-min Rain = 0
KSVS 262040Z 16013KT 20/19 A3001 RMK A01 T01990190  RH  100%=      5-min Rain = 0
KSVS 262045Z 16013KT 20/19 A3001 RMK A01 T02010192  RH  100%=      5-min Rain = 0
KSVS 262050Z 16013KT 20/19 A30 RMK A01 T02010192  RH  100%=      5-min Rain = 0
KSVS 262055Z 15013KT 20/19 A30 RMK A01 T02010192  RH  100%=      5-min Rain = 0
KSVS 262100Z 14013G18KT 20/19 A2999 RMK A01 T02010192  RH  100%=      5-min Rain = 0
KSVS 262105Z 14014G21KT 20/19 A2999 RMK A01 T02000191  RH  100%=      5-min Rain = 0
KSVS 262110Z 14013G18KT 20/19 A2998 RMK A01 T02020193  RH  100%=      5-min Rain = 0
KSVS 262115Z 15011KT 20/19 A2998 RMK A01 T02010192  RH  100%=      5-min Rain = 0
KSVS 262120Z 15013KT 20/19 A2998 RMK A01 T02010192  RH  100%=      5-min Rain = 0
KSVS 262125Z 15014KT 20/19 A2998 RMK A01 T02010192  RH  100%=      5-min Rain = 0
KSVS 262130Z 14014KT 20/19 A2997 RMK A01 T02020193  RH  100%=      5-min Rain = 0
KSVS 262135Z 14014G19KT 20/19 A2997 RMK A01 T02010193  RH  100%=      5-min Rain = 0
KSVS 262140Z 15013G18KT 20/19 A2997 RMK A01 T02020193  RH  100%=      5-min Rain = 0
KSVS 262145Z 14014G19KT 20/19 A2997 RMK A01 T02020193  RH  100%=      5-min Rain = 0
KSVS 262150Z 15015G20KT 20/19 A2997 RMK A01 T02010192  RH  100%=      5-min Rain = 0
KSVS 262155Z 14014KT 20/19 A2997 RMK A01 T02010193  RH  100%=      5-min Rain = 0
KSVS 262200Z 15014KT 20/19 A2997 RMK A01 T02020193  RH  100%=      5-min Rain = 0
KSVS 262205Z 14013KT 20/19 A2996 RMK A01 T02020193  RH  100%=      5-min Rain = 0
KSVS 262210Z 14014KT 20/19 A2995 RMK A01 T02030194  RH  100%=      5-min Rain = 0
KSVS 262215Z 14014KT 20/20 A2994 RMK A01 T02040195  RH  100%=      5-min Rain = 0
KSVS 262220Z 13016KT 21/20 A2993 RMK A01 T02050196  RH  100%=      5-min Rain = 0
KSVS 262225Z 14014G19KT 21/20 A2994 RMK A01 T02060197  RH  100%=      5-min Rain = 0
KSVS 262230Z 15013KT 21/20 A2995 RMK A01 T02070198  RH  100%=      5-min Rain = 0
KSVS 262235Z 14014KT 21/20 A2995 RMK A01 T02070198  RH  100%=      5-min Rain = 0
KSVS 262240Z 14013KT 21/20 A2995 RMK A01 T02080199  RH  100%=      5-min Rain = 0
KSVS 262245Z 14013KT 21/20 A2994 RMK A01 T02080199  RH  100%=      5-min Rain = 0
KSVS 262250Z 14014KT 21/20 A2994 RMK A01 T02080199  RH  100%=      5-min Rain = 0
KSVS 262255Z 14014KT 21/20 A2994 RMK A01 T02080199  RH  100%=      5-min Rain = 0
KSVS 262300Z 14016KT 21/20 A2993 RMK A01 T02080199  RH  100%=      5-min Rain = 0
KSVS 262305Z 13015KT 21/20 A2992 RMK A01 T02090199  RH  100%=      5-min Rain = 0
KSVS 262310Z 13014KT 21/20 A2992 RMK A01 T02090199  RH  100%=      5-min Rain = 0
KSVS 262315Z 13015G20KT 21/20 A2992 RMK A01 T02090199  RH  100%=      5-min Rain = 0
KSVS 262320Z 13016G21KT 21/20 A2991 RMK A01 T02090200  RH  100%=      5-min Rain = 0
KSVS 262325Z 14015KT 21/20 A2992 RMK A01 T02110202  RH  100%=      5-min Rain = 0
KSVS 262330Z 14015G20KT 21/20 A2992 RMK A01 T02120203  RH  100%=      5-min Rain = 0
KSVS 262335Z 14018G23KT 21/20 A2991 RMK A01 T02130203  RH  100%=      5-min Rain = 0
KSVS 262340Z 14018G24KT 21/20 A299 RMK A01 T02130202  RH  099%=      5-min Rain = 0
KSVS 262345Z 13016G23KT 22/20 A299 RMK A01 T02170204  RH  098%=      5-min Rain = 0
KSVS 262350Z 13018G23KT 22/20 A2989 RMK A01 T02220204  RH  095%=      5-min Rain = 0
KSVS 262355Z 14017G23KT 22/20 A2989 RMK A01 T02210202  RH  094%=      5-min Rain = 0
KSVS 270000Z 13019G24KT 22/20 A2989 RMK A01 T02200202  RH  095%=      5-min Rain = 0
KSVS 270005Z 14018G23KT 22/20 A2989 RMK A01 T02170200  RH  096%=      5-min Rain = 0
KSVS 270010Z 13017G23KT 22/20 A2988 RMK A01 T02180201  RH  096%=      5-min Rain = 0
KSVS 270015Z 14018G24KT 22/20 A2988 RMK A01 T02150199  RH  096%=      5-min Rain = 0
KSVS 270020Z 14018G25KT 21/20 A2988 RMK A01 T02130199  RH  097%=      5-min Rain = 0
KSVS 270025Z 14018G23KT 21/20 A2988 RMK A01 T02130199  RH  097%=      5-min Rain = 0
KSVS 270030Z 14021G27KT 21/20 A2988 RMK A01 T02120199  RH  097%=      5-min Rain = 0
KSVS 270035Z 14019G25KT 21/20 A2988 RMK A01 T02130199  RH  097%=      5-min Rain = 0
KSVS 270040Z 14020KT 21/20 A2988 RMK A01 T02130199  RH  097%=      5-min Rain = 0
KSVS 270045Z 14017G23KT 21/20 A2987 RMK A01 T02130199  RH  097%=      5-min Rain = 0
KSVS 270050Z 14017G23KT 21/20 A2987 RMK A01 T02130199  RH  097%=      5-min Rain = 0
KSVS 270055Z 14016G22KT 21/20 A2986 RMK A01 T02130199  RH  097%=      5-min Rain = 0
KSVS 270100Z 14015G21KT 21/20 A2986 RMK A01 T02130198  RH  097%=      5-min Rain = 0
KSVS 270105Z 14014KT 21/20 A2986 RMK A01 T02130198  RH  096%=      5-min Rain = 0
KSVS 270110Z 15015KT 21/20 A2987 RMK A01 T02130198  RH  096%=      5-min Rain = 0
KSVS 270115Z 15015G20KT 21/20 A2988 RMK A01 T02130197  RH  096%=      5-min Rain = 0
KSVS 270120Z 15016KT 21/20 A2988 RMK A01 T02140196  RH  095%=      5-min Rain = 0
KSVS 270125Z 15013KT 21/20 A2988 RMK A01 T02130197  RH  096%=      5-min Rain = 0
KSVS 270130Z 15015G20KT 21/20 A2988 RMK A01 T02130196  RH  096%=      5-min Rain = 0
KSVS 270135Z 15015G21KT 21/20 A2988 RMK A01 T02130196  RH  095%=      5-min Rain = 0
KSVS 270140Z 15014KT 21/20 A2988 RMK A01 T02120196  RH  096%=      5-min Rain = 0
KSVS 270145Z 15013G18KT 21/20 A2989 RMK A01 T02120196  RH  096%=      5-min Rain = 0
KSVS 270150Z 15012KT 21/20 A2989 RMK A01 T02120196  RH  096%=      5-min Rain = 0
KSVS 270155Z 14012G17KT 21/20 A2989 RMK A01 T02120195  RH  096%=      5-min Rain = 0
KSVS 270200Z 14014KT 21/20 A2988 RMK A01 T02110195  RH  096%=      5-min Rain = 0
KSVS 270205Z 14013G19KT 21/19 A2988 RMK A01 T02100194  RH  096%=      5-min Rain = 0
KSVS 270210Z 15014KT 21/19 A2989 RMK A01 T02090194  RH  096%=      5-min Rain = 0
KSVS 270215Z 15013KT 21/19 A2989 RMK A01 T02090193  RH  096%=      5-min Rain = 0
KSVS 270220Z 15013KT 21/19 A299 RMK A01 T02090193  RH  096%=      5-min Rain = 0
KSVS 270225Z 15013KT 21/19 A299 RMK A01 T02080193  RH  096%=      5-min Rain = 0
KSVS 270230Z 15013KT 21/19 A2991 RMK A01 T02070193  RH  097%=      5-min Rain = 0
KSVS 270235Z 15012KT 21/19 A2991 RMK A01 T02070193  RH  097%=      5-min Rain = 0
KSVS 270240Z 15012KT 21/19 A2991 RMK A01 T02060192  RH  097%=      5-min Rain = 0
KSVS 270245Z 15012KT 21/19 A2991 RMK A01 T02060192  RH  097%=      5-min Rain = 0
KSVS 270250Z 15011G16KT 21/19 A2991 RMK A01 T02050192  RH  097%=      5-min Rain = 0
KSVS 270255Z 15012KT 20/19 A299 RMK A01 T02040191  RH  097%=      5-min Rain = 0
KSVS 270300Z 15012KT 20/19 A2991 RMK A01 T02040191  RH  097%=      5-min Rain = 0
KSVS 270305Z 15012KT 20/19 A299 RMK A01 T02040191  RH  097%=      5-min Rain = 0
KSVS 270310Z 15012KT 20/19 A299 RMK A01 T02030190  RH  097%=      5-min Rain = 0
KSVS 270315Z 15011KT 20/19 A299 RMK A01 T02020190  RH  098%=      5-min Rain = 0
KSVS 270320Z 15012KT 20/19 A299 RMK A01 T02010190  RH  099%=      5-min Rain = 0
KSVS 270325Z 15013KT 20/19 A2989 RMK A01 T02010190  RH  099%=      5-min Rain = 0
KSVS 270330Z 14012KT 20/19 A2989 RMK A01 T02010189  RH  098%=      5-min Rain = 0
KSVS 270335Z 14012KT 20/19 A299 RMK A01 T02010189  RH  098%=      5-min Rain = 0
KSVS 270340Z 15011KT 20/19 A299 RMK A01 T02010188  RH  098%=      5-min Rain = 0
KSVS 270345Z 15011KT 20/19 A299 RMK A01 T02010188  RH  098%=      5-min Rain = 0
KSVS 270350Z 15011KT 20/19 A299 RMK A01 T02000188  RH  098%=      5-min Rain = 0
KSVS 270355Z 14011KT 20/19 A299 RMK A01 T02000188  RH  098%=      5-min Rain = 0
KSVS 270400Z 14011KT 20/19 A2989 RMK A01 T01990187  RH  098%=      5-min Rain = 0
KSVS 270405Z 14011KT 20/19 A2989 RMK A01 T01990186  RH  098%=      5-min Rain = 0
KSVS 270410Z 15010KT 20/19 A299 RMK A01 T01990186  RH  098%=      5-min Rain = 0
KSVS 270415Z 15007G12KT 20/19 A299 RMK A01 T01980185  RH  097%=      5-min Rain = 0
KSVS 270420Z 15004KT 20/19 A2991 RMK A01 T01970185  RH  097%=      5-min Rain = 0
KSVS 270425Z 34003KT 20/18 A2992 RMK A01 T01960183  RH  098%=      5-min Rain = 0
KSVS 270430Z 34008KT 19/18 A2992 RMK A01 T01920182  RH  099%=      5-min Rain = 0
KSVS 270435Z 35008KT 19/18 A2992 RMK A01 T01910183  RH  100%=      5-min Rain = 0
KSVS 270440Z 03006KT 19/18 A2991 RMK A01 T01910183  RH  100%=      5-min Rain = 0
KSVS 270445Z 07005KT 20/19 A299 RMK A01 T01960186  RH  099%=      5-min Rain = 0
KSVS 270450Z 11007KT 20/18 A299 RMK A01 T01950184  RH  098%=      5-min Rain = 0
KSVS 270455Z 11009KT 20/18 A2989 RMK A01 T01950184  RH  098%=      5-min Rain = 0

Page generated in 0.0089 seconds.